sensor_id;sensor_type;location;lat;lon;timestamp;pressure;altitude;pressure_sealevel;temperature;humidity
18755;BME280;35061;47.664;9.166;2023-05-23T00:00:11;101392.34;;;16.83;77.20
18755;BME280;35061;47.664;9.166;2023-05-23T00:02:41;101398.13;;;16.83;77.19
18755;BME280;35061;47.664;9.166;2023-05-23T00:05:09;101386.30;;;16.81;77.32
18755;BME280;35061;47.664;9.166;2023-05-23T00:07:37;101389.70;;;16.80;77.59
18755;BME280;35061;47.664;9.166;2023-05-23T00:10:06;101391.27;;;16.75;78.13
18755;BME280;35061;47.664;9.166;2023-05-23T00:12:34;101386.82;;;16.74;78.35
18755;BME280;35061;47.664;9.166;2023-05-23T00:15:04;101384.43;;;16.72;78.50
18755;BME280;35061;47.664;9.166;2023-05-23T00:17:34;101393.09;;;16.72;78.67
18755;BME280;35061;47.664;9.166;2023-05-23T00:20:06;101395.22;;;16.72;78.81
18755;BME280;35061;47.664;9.166;2023-05-23T00:22:37;101402.05;;;16.69;79.05
18755;BME280;35061;47.664;9.166;2023-05-23T00:25:09;101403.07;;;16.66;79.81
18755;BME280;35061;47.664;9.166;2023-05-23T00:27:37;101397.31;;;16.66;79.68
18755;BME280;35061;47.664;9.166;2023-05-23T00:30:06;101389.92;;;16.59;80.22
18755;BME280;35061;47.664;9.166;2023-05-23T00:32:34;101392.05;;;16.58;80.36
18755;BME280;35061;47.664;9.166;2023-05-23T00:35:02;101384.70;;;16.57;80.30
18755;BME280;35061;47.664;9.166;2023-05-23T00:37:30;101393.88;;;16.56;80.25
18755;BME280;35061;47.664;9.166;2023-05-23T00:39:59;101395.71;;;16.53;80.41
18755;BME280;35061;47.664;9.166;2023-05-23T00:42:27;101399.64;;;16.50;80.60
18755;BME280;35061;47.664;9.166;2023-05-23T00:44:55;101401.99;;;16.46;80.82
18755;BME280;35061;47.664;9.166;2023-05-23T00:47:23;101408.30;;;16.44;81.22
18755;BME280;35061;47.664;9.166;2023-05-23T00:49:51;101400.13;;;16.37;81.40
18755;BME280;35061;47.664;9.166;2023-05-23T00:52:19;101410.92;;;16.37;81.20
18755;BME280;35061;47.664;9.166;2023-05-23T00:54:47;101410.63;;;16.35;81.25
18755;BME280;35061;47.664;9.166;2023-05-23T00:57:15;101410.36;;;16.32;81.38
18755;BME280;35061;47.664;9.166;2023-05-23T00:59:44;101415.37;;;16.26;81.77
18755;BME280;35061;47.664;9.166;2023-05-23T01:02:13;101413.77;;;16.25;81.68
18755;BME280;35061;47.664;9.166;2023-05-23T01:04:42;101410.59;;;16.23;81.75
18755;BME280;35061;47.664;9.166;2023-05-23T01:07:10;101406.11;;;16.22;81.89
18755;BME280;35061;47.664;9.166;2023-05-23T01:09:39;101405.85;;;16.20;81.97
18755;BME280;35061;47.664;9.166;2023-05-23T01:12:16;101402.16;;;16.19;82.08
18755;BME280;35061;47.664;9.166;2023-05-23T01:20:36;101402.45;;;16.16;82.55
18755;BME280;35061;47.664;9.166;2023-05-23T01:28:36;101396.10;;;16.12;83.37
18755;BME280;35061;47.664;9.166;2023-05-23T01:31:09;101408.99;;;16.11;83.08
18755;BME280;35061;47.664;9.166;2023-05-23T01:33:39;101405.82;;;16.09;83.11
18755;BME280;35061;47.664;9.166;2023-05-23T01:36:07;101408.43;;;16.07;83.21
18755;BME280;35061;47.664;9.166;2023-05-23T01:38:36;101404.48;;;16.04;83.38
18755;BME280;35061;47.664;9.166;2023-05-23T01:41:04;101418.67;;;16.02;83.59
18755;BME280;35061;47.664;9.166;2023-05-23T01:43:32;101417.59;;;15.99;83.78
18755;BME280;35061;47.664;9.166;2023-05-23T01:46:02;101420.99;;;15.98;84.09
18755;BME280;35061;47.664;9.166;2023-05-23T01:48:31;101425.17;;;15.97;84.33
18755;BME280;35061;47.664;9.166;2023-05-23T01:51:00;101430.48;;;15.98;84.16
18755;BME280;35061;47.664;9.166;2023-05-23T01:53:29;101431.78;;;15.97;84.35
18755;BME280;35061;47.664;9.166;2023-05-23T01:55:57;101425.99;;;15.97;84.45
18755;BME280;35061;47.664;9.166;2023-05-23T01:58:30;101424.91;;;15.95;84.63
18755;BME280;35061;47.664;9.166;2023-05-23T02:00:58;101423.34;;;15.94;84.71
18755;BME280;35061;47.664;9.166;2023-05-23T02:03:26;101427.04;;;15.94;84.82
18755;BME280;35061;47.664;9.166;2023-05-23T02:05:54;101418.87;;;15.93;84.82
18755;BME280;35061;47.664;9.166;2023-05-23T02:08:22;101421.48;;;15.90;84.92
18755;BME280;35061;47.664;9.166;2023-05-23T02:10:50;101426.68;;;15.86;85.10
18755;BME280;35061;47.664;9.166;2023-05-23T02:13:18;101430.12;;;15.85;85.04
18755;BME280;35061;47.664;9.166;2023-05-23T02:15:46;101432.96;;;15.79;85.14
18755;BME280;35061;47.664;9.166;2023-05-23T02:18:14;101433.19;;;15.75;86.16
18755;BME280;35061;47.664;9.166;2023-05-23T02:20:42;101434.23;;;15.72;85.62
18755;BME280;35061;47.664;9.166;2023-05-23T02:23:10;101426.84;;;15.71;85.61
18755;BME280;35061;47.664;9.166;2023-05-23T02:25:38;101421.09;;;15.71;85.66
18755;BME280;35061;47.664;9.166;2023-05-23T02:28:06;101424.23;;;15.68;86.02
18755;BME280;35061;47.664;9.166;2023-05-23T02:30:34;101423.45;;;15.67;86.20
18755;BME280;35061;47.664;9.166;2023-05-23T02:33:06;101433.38;;;15.66;86.31
18755;BME280;35061;47.664;9.166;2023-05-23T02:35:34;101432.34;;;15.63;87.05
18755;BME280;35061;47.664;9.166;2023-05-23T02:38:02;101435.21;;;15.63;86.67
18755;BME280;35061;47.664;9.166;2023-05-23T02:40:30;101435.21;;;15.63;86.71
18755;BME280;35061;47.664;9.166;2023-05-23T02:42:58;101444.96;;;15.66;86.74
18755;BME280;35061;47.664;9.166;2023-05-23T02:45:26;101439.99;;;15.67;86.75
18755;BME280;35061;47.664;9.166;2023-05-23T02:47:54;101442.34;;;15.68;86.79
18755;BME280;35061;47.664;9.166;2023-05-23T02:50:22;101441.00;;;15.69;86.83
18755;BME280;35061;47.664;9.166;2023-05-23T02:52:50;101444.17;;;15.71;86.86
18755;BME280;35061;47.664;9.166;2023-05-23T02:55:18;101446.30;;;15.71;86.82
18755;BME280;35061;47.664;9.166;2023-05-23T02:57:46;101451.27;;;15.70;86.97
18755;BME280;35061;47.664;9.166;2023-05-23T04:03:04;101486.39;;;15.31;88.26
18755;BME280;35061;47.664;9.166;2023-05-23T04:05:32;101484.52;;;15.28;88.40
18755;BME280;35061;47.664;9.166;2023-05-23T04:08:00;101488.22;;;15.28;88.16
18755;BME280;35061;47.664;9.166;2023-05-23T04:10:28;101491.10;;;15.28;88.39
18755;BME280;35061;47.664;9.166;2023-05-23T04:12:56;101490.61;;;15.30;88.52
18755;BME280;35061;47.664;9.166;2023-05-23T04:15:25;101485.61;;;15.30;88.87
18755;BME280;35061;47.664;9.166;2023-05-23T04:17:54;101494.04;;;15.34;88.94
18755;BME280;35061;47.664;9.166;2023-05-23T04:20:23;101494.80;;;15.34;89.15
18755;BME280;35061;47.664;9.166;2023-05-23T04:22:50;101493.81;;;15.38;89.33
18755;BME280;35061;47.664;9.166;2023-05-23T04:25:18;101492.99;;;15.37;89.37
18755;BME280;35061;47.664;9.166;2023-05-23T04:27:46;101491.69;;;15.38;89.72
18755;BME280;35061;47.664;9.166;2023-05-23T04:30:15;101487.80;;;15.41;89.78
18755;BME280;35061;47.664;9.166;2023-05-23T04:32:44;101492.84;;;15.46;89.59
18755;BME280;35061;47.664;9.166;2023-05-23T04:35:12;101483.64;;;15.48;89.67
18755;BME280;35061;47.664;9.166;2023-05-23T04:37:41;101492.08;;;15.52;89.62
18755;BME280;35061;47.664;9.166;2023-05-23T04:40:09;101491.06;;;15.55;89.66
18755;BME280;35061;47.664;9.166;2023-05-23T04:42:37;101505.00;;;15.56;89.71
18755;BME280;35061;47.664;9.166;2023-05-23T04:45:05;101502.88;;;15.57;89.84
18755;BME280;35061;47.664;9.166;2023-05-23T04:47:34;101501.56;;;15.58;90.11
18755;BME280;35061;47.664;9.166;2023-05-23T04:50:04;101503.69;;;15.57;90.28
18755;BME280;35061;47.664;9.166;2023-05-23T04:52:32;101498.16;;;15.59;89.91
18755;BME280;35061;47.664;9.166;2023-05-23T04:55:01;101501.07;;;15.59;90.09
18755;BME280;35061;47.664;9.166;2023-05-23T04:57:29;101505.26;;;15.58;90.41
18755;BME280;35061;47.664;9.166;2023-05-23T04:59:57;101508.92;;;15.59;90.69
18755;BME280;35061;47.664;9.166;2023-05-23T05:02:25;101504.73;;;15.60;90.54
18755;BME280;35061;47.664;9.166;2023-05-23T05:04:53;101503.43;;;15.61;90.68
18755;BME280;35061;47.664;9.166;2023-05-23T05:07:21;101512.39;;;15.63;90.73
18755;BME280;35061;47.664;9.166;2023-05-23T05:09:49;101508.46;;;15.66;90.76
18755;BME280;35061;47.664;9.166;2023-05-23T05:12:17;101503.98;;;15.65;91.02
18755;BME280;35061;47.664;9.166;2023-05-23T05:14:45;101502.97;;;15.68;90.81
18755;BME280;35061;47.664;9.166;2023-05-23T05:17:13;101502.19;;;15.68;90.87
18755;BME280;35061;47.664;9.166;2023-05-23T05:19:41;101503.76;;;15.69;91.56
18755;BME280;35061;47.664;9.166;2023-05-23T05:22:09;101507.16;;;15.67;92.40
18755;BME280;35061;47.664;9.166;2023-05-23T05:24:37;101505.32;;;15.70;91.79
18755;BME280;35061;47.664;9.166;2023-05-23T05:27:07;101500.35;;;15.70;91.77
18755;BME280;35061;47.664;9.166;2023-05-23T05:29:36;101508.01;;;15.73;91.92
18755;BME280;35061;47.664;9.166;2023-05-23T05:32:04;101516.12;;;15.75;92.00
18755;BME280;35061;47.664;9.166;2023-05-23T05:34:35;101520.59;;;15.76;92.26
18755;BME280;35061;47.664;9.166;2023-05-23T05:37:04;101518.01;;;15.78;92.18
18755;BME280;35061;47.664;9.166;2023-05-23T05:39:32;101525.14;;;15.83;92.57
18755;BME280;35061;47.664;9.166;2023-05-23T05:42:00;101523.27;;;15.85;92.80
18755;BME280;35061;47.664;9.166;2023-05-23T05:44:30;101525.23;;;15.94;93.28
18755;BME280;35061;47.664;9.166;2023-05-23T05:46:58;101532.10;;;16.02;92.82
18755;BME280;35061;47.664;9.166;2023-05-23T05:49:26;101523.21;;;16.12;92.54
18755;BME280;35061;47.664;9.166;2023-05-23T05:51:54;101528.54;;;16.19;92.46
18755;BME280;35061;47.664;9.166;2023-05-23T05:54:22;101539.63;;;16.32;92.22
18755;BME280;35061;47.664;9.166;2023-05-23T05:56:50;101537.30;;;16.42;92.02
18755;BME280;35061;47.664;9.166;2023-05-23T05:59:18;101528.93;;;16.50;92.59
18755;BME280;35061;47.664;9.166;2023-05-23T06:01:46;101544.99;;;16.56;92.38
18755;BME280;35061;47.664;9.166;2023-05-23T06:04:14;101531.62;;;16.59;92.55
18755;BME280;35061;47.664;9.166;2023-05-23T06:06:42;101536.88;;;16.66;91.89
18755;BME280;35061;47.664;9.166;2023-05-23T06:09:10;101532.70;;;16.73;91.70
18755;BME280;35061;47.664;9.166;2023-05-23T06:11:38;101535.12;;;16.80;91.44
18755;BME280;35061;47.664;9.166;2023-05-23T06:14:07;101531.19;;;16.89;91.16
18755;BME280;35061;47.664;9.166;2023-05-23T06:16:36;101525.92;;;16.99;90.78
18755;BME280;35061;47.664;9.166;2023-05-23T06:19:05;101530.21;;;17.09;90.43
18755;BME280;35061;47.664;9.166;2023-05-23T06:21:33;101525.47;;;17.18;90.13
18755;BME280;35061;47.664;9.166;2023-05-23T06:24:01;101523.93;;;17.28;89.80
18755;BME280;35061;47.664;9.166;2023-05-23T06:26:29;101529.45;;;17.37;89.18
18755;BME280;35061;47.664;9.166;2023-05-23T06:28:57;101533.41;;;17.46;88.88
18755;BME280;35061;47.664;9.166;2023-05-23T06:31:25;101531.58;;;17.54;88.52
18755;BME280;35061;47.664;9.166;2023-05-23T06:33:52;101525.80;;;17.54;87.81
18755;BME280;35061;47.664;9.166;2023-05-23T06:36:21;101533.41;;;17.57;88.19
18755;BME280;35061;47.664;9.166;2023-05-23T06:38:49;101532.10;;;17.58;87.18
18755;BME280;35061;47.664;9.166;2023-05-23T06:41:16;101539.98;;;17.52;87.46
18755;BME280;35061;47.664;9.166;2023-05-23T06:43:44;101536.55;;;17.42;87.52
18755;BME280;35061;47.664;9.166;2023-05-23T06:46:12;101542.34;;;17.36;87.69
18755;BME280;35061;47.664;9.166;2023-05-23T06:48:40;101541.30;;;17.39;87.52
18755;BME280;35061;47.664;9.166;2023-05-23T06:51:08;101538.38;;;17.45;87.48
18755;BME280;35061;47.664;9.166;2023-05-23T06:53:37;101539.46;;;17.53;87.27
18755;BME280;35061;47.664;9.166;2023-05-23T06:56:05;101542.11;;;17.57;86.92
18755;BME280;35061;47.664;9.166;2023-05-23T06:58:33;101542.11;;;17.57;86.49
18755;BME280;35061;47.664;9.166;2023-05-23T07:01:01;101539.46;;;17.59;86.20
18755;BME280;35061;47.664;9.166;2023-05-23T07:03:29;101540.77;;;17.58;85.94
18755;BME280;35061;47.664;9.166;2023-05-23T07:05:57;101544.47;;;17.58;85.82
18755;BME280;35061;47.664;9.166;2023-05-23T07:08:25;101545.52;;;17.61;85.72
18755;BME280;35061;47.664;9.166;2023-05-23T07:10:53;101548.39;;;17.72;85.64
18755;BME280;35061;47.664;9.166;2023-05-23T07:13:21;101553.91;;;17.82;85.44
18755;BME280;35061;47.664;9.166;2023-05-23T07:15:49;101554.73;;;17.88;85.08
18755;BME280;35061;47.664;9.166;2023-05-23T07:18:17;101565.00;;;17.95;84.93
18755;BME280;35061;47.664;9.166;2023-05-23T07:20:45;101562.09;;;18.00;84.77
18755;BME280;35061;47.664;9.166;2023-05-23T07:23:14;101568.66;;;18.01;84.28
18755;BME280;35061;47.664;9.166;2023-05-23T07:25:42;101556.53;;;18.03;83.80
18755;BME280;35061;47.664;9.166;2023-05-23T07:28:27;101565.23;;;18.03;83.81
18755;BME280;35061;47.664;9.166;2023-05-23T07:30:55;101553.39;;;17.95;83.49
18755;BME280;35061;47.664;9.166;2023-05-23T07:33:24;101563.66;;;17.90;83.63
18755;BME280;35061;47.664;9.166;2023-05-23T07:35:53;101561.27;;;17.94;83.71
18755;BME280;35061;47.664;9.166;2023-05-23T07:38:21;101556.27;;;18.00;83.64
18755;BME280;35061;47.664;9.166;2023-05-23T07:40:49;101559.45;;;18.03;83.16
18755;BME280;35061;47.664;9.166;2023-05-23T07:43:35;101550.25;;;18.04;82.78
18755;BME280;35061;47.664;9.166;2023-05-23T07:46:03;101553.66;;;18.14;82.79
18755;BME280;35061;47.664;9.166;2023-05-23T07:48:32;101559.70;;;18.22;82.40
18755;BME280;35061;47.664;9.166;2023-05-23T07:51:00;101558.37;;;18.29;82.28
18755;BME280;35061;47.664;9.166;2023-05-23T07:53:27;101567.06;;;18.34;81.91
18755;BME280;35061;47.664;9.166;2023-05-23T07:55:55;101558.85;;;18.38;81.84
18755;BME280;35061;47.664;9.166;2023-05-23T07:58:23;101559.12;;;18.40;81.48
18755;BME280;35061;47.664;9.166;2023-05-23T08:00:51;101555.95;;;18.44;81.31
18755;BME280;35061;47.664;9.166;2023-05-23T08:03:20;101555.16;;;18.49;81.11
18755;BME280;35061;47.664;9.166;2023-05-23T08:05:48;101554.08;;;18.52;80.93
18755;BME280;35061;47.664;9.166;2023-05-23T08:08:16;101548.52;;;18.54;80.34
18755;BME280;35061;47.664;9.166;2023-05-23T08:10:44;101550.09;;;18.55;79.76
18755;BME280;35061;47.664;9.166;2023-05-23T08:13:13;101544.30;;;18.55;79.50
18755;BME280;35061;47.664;9.166;2023-05-23T08:15:41;101562.74;;;18.58;79.19
18755;BME280;35061;47.664;9.166;2023-05-23T08:18:10;101553.79;;;18.62;79.05
18755;BME280;35061;47.664;9.166;2023-05-23T08:20:39;101565.36;;;18.67;78.69
18755;BME280;35061;47.664;9.166;2023-05-23T08:23:08;101563.20;;;18.74;78.54
18755;BME280;35061;47.664;9.166;2023-05-23T08:25:36;101554.80;;;18.76;78.11
18755;BME280;35061;47.664;9.166;2023-05-23T08:28:04;101564.77;;;18.80;77.83
18755;BME280;35061;47.664;9.166;2023-05-23T08:30:32;101555.26;;;18.86;77.84
18755;BME280;35061;47.664;9.166;2023-05-23T08:33:00;101556.01;;;18.92;77.75
18755;BME280;35061;47.664;9.166;2023-05-23T08:35:31;101558.33;;;18.99;77.39
18755;BME280;35061;47.664;9.166;2023-05-23T08:38:05;101553.33;;;19.05;76.93
18755;BME280;35061;47.664;9.166;2023-05-23T08:40:35;101563.30;;;19.16;76.67
18755;BME280;35061;47.664;9.166;2023-05-23T08:43:03;101563.50;;;19.23;76.33
18755;BME280;35061;47.664;9.166;2023-05-23T08:45:31;101564.51;;;19.32;76.03
18755;BME280;35061;47.664;9.166;2023-05-23T08:48:01;101562.62;;;19.40;75.97
18755;BME280;35061;47.664;9.166;2023-05-23T08:50:35;101561.02;;;19.45;75.74
18755;BME280;35061;47.664;9.166;2023-05-23T08:53:05;101556.96;;;19.53;75.72
18755;BME280;35061;47.664;9.166;2023-05-23T08:55:37;101566.67;;;19.62;75.59
18755;BME280;35061;47.664;9.166;2023-05-23T08:58:05;101568.20;;;19.69;74.91
18755;BME280;35061;47.664;9.166;2023-05-23T09:00:34;101565.23;;;19.74;74.16
18755;BME280;35061;47.664;9.166;2023-05-23T09:03:02;101564.71;;;19.76;73.54
18755;BME280;35061;47.664;9.166;2023-05-23T09:05:30;101570.20;;;19.79;73.57
18755;BME280;35061;47.664;9.166;2023-05-23T09:07:58;101573.63;;;19.84;73.15
18755;BME280;35061;47.664;9.166;2023-05-23T09:10:26;101566.77;;;19.81;72.43
18755;BME280;35061;47.664;9.166;2023-05-23T09:12:56;101565.23;;;19.74;71.96
18755;BME280;35061;47.664;9.166;2023-05-23T09:15:25;101563.10;;;19.75;71.65
18755;BME280;35061;47.664;9.166;2023-05-23T09:17:59;101570.27;;;19.74;71.68
18755;BME280;35061;47.664;9.166;2023-05-23T09:20:28;101577.40;;;19.73;71.61
18755;BME280;35061;47.664;9.166;2023-05-23T09:22:56;101570.20;;;19.79;71.73
18755;BME280;35061;47.664;9.166;2023-05-23T09:25:28;101572.30;;;19.85;71.84
18755;BME280;35061;47.664;9.166;2023-05-23T09:27:56;101566.67;;;19.92;71.87
18755;BME280;35061;47.664;9.166;2023-05-23T09:30:26;101565.30;;;19.99;71.62
18755;BME280;35061;47.664;9.166;2023-05-23T09:32:58;101575.83;;;20.08;71.44
18755;BME280;35061;47.664;9.166;2023-05-23T09:35:31;101570.40;;;20.18;71.06
18755;BME280;35061;47.664;9.166;2023-05-23T09:37:59;101575.92;;;20.21;70.28
18755;BME280;35061;47.664;9.166;2023-05-23T09:40:30;101569.52;;;20.29;70.34
18755;BME280;35061;47.664;9.166;2023-05-23T09:43:03;101566.77;;;20.36;69.69
18755;BME280;35061;47.664;9.166;2023-05-23T09:45:32;101569.61;;;20.42;69.48
18755;BME280;35061;47.664;9.166;2023-05-23T09:48:00;101565.63;;;20.45;68.83
18755;BME280;35061;47.664;9.166;2023-05-23T09:50:31;101564.77;;;20.50;68.87
18755;BME280;35061;47.664;9.166;2023-05-23T09:53:02;101561.47;;;20.60;68.45
18755;BME280;35061;47.664;9.166;2023-05-23T09:55:30;101566.67;;;20.67;67.95
18755;BME280;35061;47.664;9.166;2023-05-23T09:57:58;101557.88;;;20.73;67.60
18755;BME280;35061;47.664;9.166;2023-05-23T10:00:28;101564.19;;;20.77;67.30
18755;BME280;35061;47.664;9.166;2023-05-23T10:03:10;101560.95;;;20.81;67.26
18755;BME280;35061;47.664;9.166;2023-05-23T10:05:49;101557.97;;;20.86;65.91
18755;BME280;35061;47.664;9.166;2023-05-23T10:08:25;101554.15;;;20.97;66.67
18755;BME280;35061;47.664;9.166;2023-05-23T10:13:55;101548.09;;;21.14;65.88
18755;BME280;35061;47.664;9.166;2023-05-23T10:16:33;101543.35;;;21.11;65.13
18755;BME280;35061;47.664;9.166;2023-05-23T10:19:12;101536.75;;;21.11;65.22
18755;BME280;35061;47.664;9.166;2023-05-23T10:21:49;101531.65;;;21.17;66.37
18755;BME280;35061;47.664;9.166;2023-05-23T10:24:17;101535.80;;;21.22;65.79
18755;BME280;35061;47.664;9.166;2023-05-23T10:26:47;101531.22;;;21.26;65.68
18755;BME280;35061;47.664;9.166;2023-05-23T10:29:15;101521.05;;;21.33;65.39
18755;BME280;35061;47.664;9.166;2023-05-23T10:31:43;101527.04;;;21.41;65.51
18755;BME280;35061;47.664;9.166;2023-05-23T10:40:36;101517.23;;;21.57;63.74
18755;BME280;35061;47.664;9.166;2023-05-23T10:43:17;101515.88;;;21.58;63.71
18755;BME280;35061;47.664;9.166;2023-05-23T10:45:47;101521.94;;;21.60;63.34
18755;BME280;35061;47.664;9.166;2023-05-23T10:48:40;101506.47;;;21.66;63.62
18755;BME280;35061;47.664;9.166;2023-05-23T10:51:10;101514.38;;;21.71;63.06
18755;BME280;35061;47.664;9.166;2023-05-23T10:53:43;101506.30;;;21.77;63.08
18755;BME280;35061;47.664;9.166;2023-05-23T10:56:20;101508.89;;;21.81;63.11
18755;BME280;35061;47.664;9.166;2023-05-23T10:58:55;101511.93;;;21.88;61.76
18755;BME280;35061;47.664;9.166;2023-05-23T11:01:25;101507.91;;;21.92;62.24
18755;BME280;35061;47.664;9.166;2023-05-23T11:03:53;101504.77;;;22.03;62.71
18755;BME280;35061;47.664;9.166;2023-05-23T11:06:39;101501.40;;;22.12;62.72
18755;BME280;35061;47.664;9.166;2023-05-23T11:09:15;101507.68;;;22.16;61.83
18755;BME280;35061;47.664;9.166;2023-05-23T11:17:14;101505.00;;;22.32;60.82
18755;BME280;35061;47.664;9.166;2023-05-23T11:20:03;101517.23;;;22.30;60.72
18755;BME280;35061;47.664;9.166;2023-05-23T11:22:33;101514.41;;;22.25;60.42
18755;BME280;35061;47.664;9.166;2023-05-23T11:25:11;101523.60;;;22.15;60.49
18755;BME280;35061;47.664;9.166;2023-05-23T11:27:40;101532.70;;;21.98;59.41
18755;BME280;35061;47.664;9.166;2023-05-23T11:30:13;101526.84;;;21.85;60.15
18755;BME280;35061;47.664;9.166;2023-05-23T11:32:49;101525.70;;;21.74;60.13
18755;BME280;35061;47.664;9.166;2023-05-23T11:35:17;101529.78;;;21.66;60.13
18755;BME280;35061;47.664;9.166;2023-05-23T11:37:45;101526.61;;;21.50;60.60
18755;BME280;35061;47.664;9.166;2023-05-23T11:40:37;101533.64;;;21.41;60.90
18755;BME280;35061;47.664;9.166;2023-05-23T11:43:11;101525.99;;;21.38;61.17
18755;BME280;35061;47.664;9.166;2023-05-23T11:45:40;101525.53;;;21.34;61.51
18755;BME280;35061;47.664;9.166;2023-05-23T11:48:10;101519.94;;;21.36;61.69
18755;BME280;35061;47.664;9.166;2023-05-23T11:50:50;101526.80;;;21.39;61.90
18755;BME280;35061;47.664;9.166;2023-05-23T11:53:21;101526.71;;;21.44;61.68
18755;BME280;35061;47.664;9.166;2023-05-23T11:55:56;101517.75;;;21.42;61.47
18755;BME280;35061;47.664;9.166;2023-05-23T11:58:37;101518.17;;;21.46;61.04
18755;BME280;35061;47.664;9.166;2023-05-23T12:01:07;101511.14;;;21.55;59.81
18755;BME280;35061;47.664;9.166;2023-05-23T12:03:49;101506.01;;;21.61;59.87
18755;BME280;35061;47.664;9.166;2023-05-23T12:06:19;101490.15;;;21.76;59.20
18755;BME280;35061;47.664;9.166;2023-05-23T12:08:47;101485.70;;;21.88;59.46
18755;BME280;35061;47.664;9.166;2023-05-23T12:11:15;101486.26;;;22.00;58.71
18755;BME280;35061;47.664;9.166;2023-05-23T12:13:44;101481.65;;;22.05;57.86
18755;BME280;35061;47.664;9.166;2023-05-23T12:16:13;101480.30;;;22.06;57.65
18755;BME280;35061;47.664;9.166;2023-05-23T12:18:43;101475.08;;;22.05;57.49
18755;BME280;35061;47.664;9.166;2023-05-23T12:21:12;101470.20;;;22.07;57.46
18755;BME280;35061;47.664;9.166;2023-05-23T12:23:40;101470.01;;;22.05;57.41
18755;BME280;35061;47.664;9.166;2023-05-23T12:26:08;101473.38;;;22.09;57.05
18755;BME280;35061;47.664;9.166;2023-05-23T12:28:38;101469.32;;;22.12;56.87
18755;BME280;35061;47.664;9.166;2023-05-23T12:31:17;101472.59;;;22.09;56.89
18755;BME280;35061;47.664;9.166;2023-05-23T12:33:47;101481.65;;;22.05;56.96
18755;BME280;35061;47.664;9.166;2023-05-23T12:36:23;101482.34;;;21.98;57.26
18755;BME280;35061;47.664;9.166;2023-05-23T12:39:01;101474.26;;;21.91;57.36
18755;BME280;35061;47.664;9.166;2023-05-23T12:41:31;101479.06;;;21.88;57.71
18755;BME280;35061;47.664;9.166;2023-05-23T12:43:59;101486.26;;;21.87;58.03
18755;BME280;35061;47.664;9.166;2023-05-23T12:46:29;101478.87;;;21.86;58.25
18755;BME280;35061;47.664;9.166;2023-05-23T12:48:57;101494.99;;;21.87;58.47
18755;BME280;35061;47.664;9.166;2023-05-23T12:51:24;101498.45;;;21.85;58.77
18755;BME280;35061;47.664;9.166;2023-05-23T12:53:53;101497.80;;;21.79;58.87
18755;BME280;35061;47.664;9.166;2023-05-23T12:56:22;101491.16;;;21.79;58.87
18755;BME280;35061;47.664;9.166;2023-05-23T12:58:50;101496.56;;;21.74;58.85
18755;BME280;35061;47.664;9.166;2023-05-23T13:01:19;101494.73;;;21.71;59.00
18755;BME280;35061;47.664;9.166;2023-05-23T13:03:47;101492.18;;;21.68;59.19
18755;BME280;35061;47.664;9.166;2023-05-23T13:06:15;101493.55;;;21.61;60.33
18755;BME280;35061;47.664;9.166;2023-05-23T13:08:43;101501.50;;;21.47;62.43
18755;BME280;35061;47.664;9.166;2023-05-23T13:11:11;101495.48;;;21.26;64.56
18755;BME280;35061;47.664;9.166;2023-05-23T13:13:40;101499.08;;;20.99;65.98
18755;BME280;35061;47.664;9.166;2023-05-23T13:16:08;101502.80;;;20.75;66.76
18755;BME280;35061;47.664;9.166;2023-05-23T13:18:36;101499.99;;;20.50;67.87
18755;BME280;35061;47.664;9.166;2023-05-23T13:21:04;101499.73;;;20.29;68.55
18755;BME280;35061;47.664;9.166;2023-05-23T13:23:33;101498.81;;;20.15;69.05
18755;BME280;35061;47.664;9.166;2023-05-23T13:26:02;101509.64;;;19.89;72.29
18755;BME280;35061;47.664;9.166;2023-05-23T13:28:31;101510.10;;;19.69;72.06
18755;BME280;35061;47.664;9.166;2023-05-23T13:30:59;101515.27;;;19.51;72.12
18755;BME280;35061;47.664;9.166;2023-05-23T13:33:28;101515.40;;;19.34;73.37
18755;BME280;35061;47.664;9.166;2023-05-23T13:35:56;101515.23;;;19.20;74.30
18755;BME280;35061;47.664;9.166;2023-05-23T13:38:24;101523.51;;;19.05;75.40
18755;BME280;35061;47.664;9.166;2023-05-23T13:40:54;101528.34;;;18.85;79.05
18755;BME280;35061;47.664;9.166;2023-05-23T13:43:22;101521.84;;;18.67;79.44
18755;BME280;35061;47.664;9.166;2023-05-23T13:45:50;101515.56;;;18.58;79.48
18755;BME280;35061;47.664;9.166;2023-05-23T13:48:19;101517.16;;;18.47;80.14
18755;BME280;35061;47.664;9.166;2023-05-23T13:50:47;101519.38;;;18.30;82.74
18755;BME280;35061;47.664;9.166;2023-05-23T13:53:15;101529.13;;;18.15;85.65
18755;BME280;35061;47.664;9.166;2023-05-23T13:55:43;101526.80;;;17.96;86.46
18755;BME280;35061;47.664;9.166;2023-05-23T13:58:12;101539.70;;;17.84;87.98
18755;BME280;35061;47.664;9.166;2023-05-23T14:00:40;101547.38;;;17.76;90.89
18755;BME280;35061;47.664;9.166;2023-05-23T14:03:08;101552.12;;;17.67;92.59
18755;BME280;35061;47.664;9.166;2023-05-23T14:05:37;101551.86;;;17.60;93.23
18755;BME280;35061;47.664;9.166;2023-05-23T14:08:05;101554.73;;;17.54;94.08
18755;BME280;35061;47.664;9.166;2023-05-23T14:10:33;101557.35;;;17.52;93.68
18755;BME280;35061;47.664;9.166;2023-05-23T14:13:01;101554.44;;;17.52;93.31
18755;BME280;35061;47.664;9.166;2023-05-23T14:15:29;101552.87;;;17.51;93.37
18755;BME280;35061;47.664;9.166;2023-05-23T14:18:03;101555.52;;;17.49;93.51
18755;BME280;35061;47.664;9.166;2023-05-23T14:20:31;101547.90;;;17.51;93.22
18755;BME280;35061;47.664;9.166;2023-05-23T14:22:59;101546.82;;;17.54;93.32
18755;BME280;35061;47.664;9.166;2023-05-23T14:25:27;101546.07;;;17.60;93.29
18755;BME280;35061;47.664;9.166;2023-05-23T14:27:55;101547.38;;;17.64;93.47
18755;BME280;35061;47.664;9.166;2023-05-23T14:30:23;101548.13;;;17.70;93.45